Ana Sayfa
METAR-TAF:

METAR-TAF

Havaalanları :

Hydaburg, Alaska, Amerika Birleşik Devletleri

Enlem: 55-12N, Boylam: 132-50W, yükseklik: 0 m

Güncel hava durumu gözlemi

Rapor saat 00:22 UTC de 41 dakika önce yapıldı.
Rüzgar doğudan 9 kt
Sıcaklık 16°C
Nem 88%
Basınç 1013 hPa
Görüş mesafesi: 8.0 km
1400 ft yükseklikte parçalı çok bulutlu
1900 ft yükseklikte çok bulutlu
hafif yağmur, Pus

METAR: PAHY 180022Z AUTO 10009KT 5SM -RA BR BKN014 OVC019 16/14 A2992 RMK AO2 PNO $

Saat: 17:03 (01:03 UTC)


TAF: eksik

4.000'den fazla havaalanı için hava durumu gözlemleri ve tahminleri (METAR ve TAF raporları).

Kullanılabilir istasyonlar harita üzerinde sarı ve kırmızı noktalarla gösterilir.

İstasyonun adını görmek için fareyi noktanın üzerinde gezdirin.

Sonrasında hava gözlem ve tahminlerini görmek için tıklayın.

Haritayı değiştirmek için: yaklaştırmak için siyah artı işaretli yeşil düğmeye ve uzaklaştırmak için de eksi işaretli düğmeye hızla tıklayın; bitişik haritalar için yeşil okları kullanın.


METAR-TAF: